createdAt,value
2023-01-28T00:00:19.863Z,99.99
2023-01-28T00:05:19.783Z,99.99
2023-01-28T00:10:19.736Z,99.99
2023-01-28T00:15:19.658Z,99.99
2023-01-28T00:20:19.611Z,99.99
2023-01-28T00:25:19.533Z,99.99
2023-01-28T00:30:19.482Z,99.99
2023-01-28T00:35:19.418Z,99.99
2023-01-28T00:40:19.347Z,99.99
2023-01-28T00:45:19.278Z,99.99
2023-01-28T00:50:19.217Z,99.99
2023-01-28T00:55:19.147Z,99.99
2023-01-28T01:00:19.095Z,99.99
2023-01-28T01:05:19.016Z,99.99
2023-01-28T01:10:18.980Z,99.99
2023-01-28T01:15:18.889Z,99.99
2023-01-28T01:20:18.866Z,99.99
2023-01-28T01:25:18.759Z,99.99
2023-01-28T01:30:18.725Z,99.99
2023-01-28T01:35:18.850Z,99.99
2023-01-28T01:40:18.600Z,99.99
2023-01-28T01:45:18.517Z,99.99
2023-01-28T01:50:18.448Z,99.99
2023-01-28T01:55:18.384Z,99.99
2023-01-28T02:00:18.322Z,99.99
2023-01-28T02:05:18.549Z,99.99
2023-01-28T02:10:18.201Z,99.99
2023-01-28T02:15:18.290Z,99.99
2023-01-28T02:20:18.069Z,99.99
2023-01-28T02:25:17.992Z,99.99
2023-01-28T02:30:17.946Z,99.99
2023-01-28T02:35:17.866Z,99.85
2023-01-28T02:40:17.811Z,99.64
2023-01-28T02:45:17.739Z,99.54
2023-01-28T02:50:17.682Z,99.43
2023-01-28T02:55:17.733Z,99.43
2023-01-28T03:00:17.571Z,99.43
2023-01-28T03:05:17.482Z,99.48
2023-01-28T03:10:17.425Z,99.33
2023-01-28T03:15:17.621Z,99.23
2023-01-28T03:20:17.304Z,99.16
2023-01-28T03:25:17.324Z,99.27
2023-01-28T03:30:17.174Z,99.06
2023-01-28T03:35:17.356Z,99.06
2023-01-28T03:40:17.042Z,99.06
2023-01-28T03:45:17.446Z,99.27
2023-01-28T03:50:16.913Z,99.27
2023-01-28T03:55:17.169Z,99.06
2023-01-28T04:00:16.786Z,99.06
2023-01-28T04:05:17.099Z,98.96
2023-01-28T04:10:16.659Z,98.85
2023-01-28T04:15:17.180Z,98.96
2023-01-28T04:20:16.532Z,98.85
2023-01-28T04:25:16.869Z,98.96
2023-01-28T04:30:16.416Z,98.96
2023-01-28T04:35:16.743Z,98.54
2023-01-28T04:40:16.272Z,98.48
2023-01-28T04:45:16.622Z,98.59
2023-01-28T04:50:16.144Z,98.17
2023-01-28T04:55:16.426Z,98.17
2023-01-28T05:00:16.028Z,98.17
2023-01-28T05:05:16.297Z,98.17
2023-01-28T05:10:15.903Z,98.27
2023-01-28T05:15:16.210Z,98.38
2023-01-28T05:20:15.779Z,98.38
2023-01-28T05:25:16.091Z,98.48
2023-01-28T05:30:16.032Z,98.38
2023-01-28T05:35:15.849Z,98.17
2023-01-28T05:40:15.984Z,98.27
2023-01-28T05:45:15.760Z,98.27
2023-01-28T05:50:15.933Z,98.07
2023-01-28T05:55:15.345Z,98.27
2023-01-28T06:00:15.655Z,98.38
2023-01-28T06:05:15.266Z,98.38
2023-01-28T06:10:15.611Z,98.38
2023-01-28T06:15:15.113Z,98.32
2023-01-28T06:20:15.455Z,98.21
2023-01-28T06:25:14.934Z,98.21
2023-01-28T06:30:15.346Z,98.32
2023-01-28T06:35:14.808Z,98.21
2023-01-28T06:40:15.140Z,98.11
2023-01-28T06:45:14.678Z,98.15
2023-01-28T06:50:15.047Z,97.94
2023-01-28T06:55:14.550Z,98.05
2023-01-28T07:00:14.934Z,98.05
2023-01-28T07:05:14.429Z,98.05
2023-01-28T07:10:14.818Z,97.84
2023-01-28T07:15:14.292Z,97.94
2023-01-28T07:20:14.600Z,97.69
2023-01-28T07:25:14.227Z,97.53
2023-01-28T07:30:14.706Z,97.63
2023-01-28T07:35:14.040Z,97.74
2023-01-28T07:40:14.438Z,97.90
2023-01-28T07:45:13.907Z,98.01
2023-01-28T07:50:14.134Z,97.90
2023-01-28T07:55:13.780Z,97.58
2023-01-28T08:00:13.970Z,97.48
2023-01-28T08:05:13.773Z,97.38
2023-01-28T08:10:14.072Z,97.38
2023-01-28T08:15:13.527Z,97.07
2023-01-28T08:20:13.666Z,96.92
2023-01-28T08:25:13.419Z,95.92
2023-01-28T08:30:13.641Z,95.61
2023-01-28T08:35:13.281Z,95.14
2023-01-28T08:40:13.772Z,93.41
2023-01-28T08:45:13.151Z,91.85
2023-01-28T08:50:13.380Z,90.91
2023-01-28T08:55:13.038Z,91.70
2023-01-28T09:00:13.387Z,92.43
2023-01-28T09:05:12.893Z,90.35
2023-01-28T09:10:13.115Z,88.47
2023-01-28T09:15:12.767Z,86.38
2023-01-28T09:20:12.684Z,85.86
2023-01-28T09:25:12.630Z,79.39
2023-01-28T09:30:12.557Z,81.02
2023-01-28T09:35:12.503Z,78.52
2023-01-28T09:40:12.720Z,79.98
2023-01-28T09:45:12.387Z,75.95
2023-01-28T09:50:12.339Z,77.93
2023-01-28T09:55:12.259Z,79.29
2023-01-28T10:00:14.581Z,80.09
2023-01-28T10:05:12.144Z,80.19
2023-01-28T10:10:12.044Z,81.75
2023-01-28T10:15:12.015Z,81.92
2023-01-28T10:20:11.940Z,80.50
2023-01-28T10:25:11.876Z,78.31
2023-01-28T10:30:11.788Z,78.52
2023-01-28T10:35:11.759Z,79.11
2023-01-28T10:40:11.662Z,77.44
2023-01-28T10:45:11.614Z,75.15
2023-01-28T10:50:11.541Z,75.46
2023-01-28T10:55:11.487Z,77.13
2023-01-28T11:00:11.405Z,76.30
2023-01-28T11:05:11.360Z,78.03
2023-01-28T11:10:11.276Z,75.32
2023-01-28T11:15:11.218Z,76.30
2023-01-28T11:20:11.217Z,76.92
2023-01-28T11:25:11.090Z,77.65
2023-01-28T11:30:11.018Z,78.27
2023-01-28T11:35:12.581Z,76.09
2023-01-28T11:40:10.890Z,75.15
2023-01-28T11:45:10.833Z,76.30
2023-01-28T11:50:10.761Z,77.86
2023-01-28T11:55:10.715Z,77.13
2023-01-28T12:00:12.190Z,76.78
2023-01-28T12:05:10.588Z,74.94
2023-01-28T12:10:10.518Z,75.18
2023-01-28T12:15:10.473Z,76.64
2023-01-28T12:20:10.381Z,76.61
2023-01-28T12:25:10.346Z,75.98
2023-01-28T12:30:10.251Z,77.13
2023-01-28T12:35:10.193Z,76.30
2023-01-28T12:40:10.121Z,75.25
2023-01-28T12:45:10.064Z,77.02
2023-01-28T12:50:09.998Z,77.75
2023-01-28T12:55:09.936Z,77.02
2023-01-28T13:00:09.870Z,77.13
2023-01-28T13:05:09.810Z,75.91
2023-01-28T13:10:09.735Z,76.22
2023-01-28T13:15:09.680Z,76.22
2023-01-28T13:20:09.631Z,76.09
2023-01-28T13:25:09.549Z,77.55
2023-01-28T13:30:09.483Z,77.65
2023-01-28T13:35:09.422Z,77.44
2023-01-28T13:40:09.427Z,76.30
2023-01-28T13:45:09.293Z,76.22
2023-01-28T13:50:09.261Z,76.95
2023-01-28T13:55:09.165Z,76.01
2023-01-28T14:00:09.227Z,77.47
2023-01-28T14:05:09.036Z,78.31
2023-01-28T14:10:09.118Z,77.86
2023-01-28T14:15:08.905Z,78.07
2023-01-28T14:20:08.861Z,78.94
2023-01-28T14:25:08.781Z,79.87
2023-01-28T14:30:08.720Z,79.98
2023-01-28T14:35:08.665Z,80.50
2023-01-28T14:40:08.590Z,81.65
2023-01-28T14:45:08.523Z,80.60
2023-01-28T14:50:08.451Z,80.74
2023-01-28T14:55:08.407Z,80.33
2023-01-28T15:00:08.322Z,80.12
2023-01-28T15:05:08.268Z,80.74
2023-01-28T15:10:08.207Z,80.85
2023-01-28T15:15:08.143Z,80.78
2023-01-28T15:20:08.081Z,81.65
2023-01-28T15:25:08.009Z,80.92
2023-01-28T15:30:07.948Z,82.00
2023-01-28T15:35:07.890Z,83.26
2023-01-28T15:40:07.827Z,83.89
2023-01-28T15:45:07.753Z,83.67
2023-01-28T15:50:07.686Z,84.20
2023-01-28T15:55:07.633Z,84.93
2023-01-28T16:00:07.560Z,85.04
2023-01-28T16:05:07.500Z,85.35
2023-01-28T16:10:07.428Z,85.14
2023-01-28T16:15:07.383Z,85.87
2023-01-28T16:20:07.306Z,85.77
2023-01-28T16:25:07.248Z,86.60
2023-01-28T16:30:07.183Z,87.02
2023-01-28T16:35:07.119Z,87.23
2023-01-28T16:40:07.061Z,86.29
2023-01-28T16:45:06.994Z,86.92
2023-01-28T16:50:06.933Z,85.98
2023-01-28T16:55:06.862Z,85.87
2023-01-28T17:00:06.806Z,85.41
2023-01-28T17:05:06.740Z,85.52
2023-01-28T17:10:06.677Z,85.10
2023-01-28T17:15:06.617Z,84.16
2023-01-28T17:20:06.547Z,83.85
2023-01-28T17:25:06.488Z,85.21
2023-01-28T17:30:06.416Z,86.29
2023-01-28T17:35:06.376Z,86.81
2023-01-28T17:40:06.299Z,85.35
2023-01-28T17:45:06.229Z,83.99
2023-01-28T17:50:06.181Z,81.28
2023-01-28T17:55:06.102Z,79.77
2023-01-28T18:00:06.047Z,78.63
2023-01-28T18:05:05.973Z,78.10
2023-01-28T18:10:05.920Z,80.40
2023-01-28T18:15:05.849Z,79.26
2023-01-28T18:20:05.796Z,77.58
2023-01-28T18:25:05.722Z,76.95
2023-01-28T18:30:05.653Z,77.38
2023-01-28T18:35:05.602Z,76.64
2023-01-28T18:40:05.523Z,74.87
2023-01-28T18:45:05.476Z,74.66
2023-01-28T18:50:05.407Z,74.79
2023-01-28T18:55:05.389Z,75.11
2023-01-28T19:00:05.272Z,76.78
2023-01-28T19:05:05.224Z,76.15
2023-01-28T19:10:05.143Z,75.95
2023-01-28T19:15:05.085Z,76.99
2023-01-28T19:20:05.015Z,77.51
2023-01-28T19:25:04.966Z,76.57
2023-01-28T19:30:04.888Z,76.15
2023-01-28T19:35:04.840Z,77.23
2023-01-28T19:40:04.760Z,77.23
2023-01-28T19:45:04.705Z,76.71
2023-01-28T19:50:04.633Z,77.76
2023-01-28T19:55:04.585Z,78.80
2023-01-28T20:00:04.514Z,79.22
2023-01-28T20:05:04.462Z,78.91
2023-01-28T20:10:04.381Z,78.28
2023-01-28T20:15:04.334Z,77.97
2023-01-28T20:20:04.254Z,78.38
2023-01-28T20:25:04.208Z,79.22
2023-01-28T20:30:04.125Z,80.27
2023-01-28T20:35:04.069Z,80.58
2023-01-28T20:40:03.999Z,80.58
2023-01-28T20:45:03.963Z,80.23
2023-01-28T20:50:03.890Z,79.71
2023-01-28T20:55:03.820Z,79.71
2023-01-28T21:00:03.744Z,79.91
2023-01-28T21:05:03.705Z,80.23
2023-01-28T21:10:03.616Z,78.87
2023-01-28T21:15:03.562Z,77.86
2023-01-28T21:20:03.491Z,77.55
2023-01-28T21:25:05.423Z,77.03
2023-01-28T21:30:03.364Z,76.71
2023-01-28T21:35:03.312Z,77.65
2023-01-28T21:40:03.237Z,77.76
2023-01-28T21:45:03.181Z,77.86
2023-01-28T21:50:03.110Z,78.60
2023-01-28T21:55:03.064Z,78.17
2023-01-28T22:00:02.984Z,78.52
2023-01-28T22:05:02.957Z,79.50
2023-01-28T22:10:02.858Z,80.13
2023-01-28T22:15:02.810Z,80.06
2023-01-28T22:20:02.730Z,80.59
2023-01-28T22:25:02.691Z,81.15
2023-01-28T22:30:02.599Z,81.35
2023-01-28T22:35:02.545Z,81.98
2023-01-28T22:40:02.473Z,82.33
2023-01-28T22:45:02.416Z,83.17
2023-01-28T22:50:02.342Z,83.80
2023-01-28T22:55:02.284Z,83.70
2023-01-28T23:00:02.227Z,83.59
2023-01-28T23:05:02.162Z,83.74
2023-01-28T23:10:02.086Z,84.19
2023-01-28T23:15:02.038Z,84.93
2023-01-28T23:20:01.963Z,85.45
2023-01-28T23:25:01.916Z,85.45
2023-01-28T23:30:01.826Z,85.28
2023-01-28T23:35:01.774Z,84.75
2023-01-28T23:40:01.692Z,85.07
2023-01-28T23:45:01.652Z,84.75
2023-01-28T23:50:01.597Z,85.11
2023-01-28T23:55:01.553Z,85.53
